createdAt,value
2018-01-01T00:01:48.726Z,64.94
2018-01-01T00:04:16.250Z,65.34
2018-01-01T00:06:43.804Z,65.08
2018-01-01T00:09:11.290Z,64.93
2018-01-01T00:11:38.777Z,64.89
2018-01-01T00:14:06.240Z,65.36
2018-01-01T00:16:33.692Z,64.71
2018-01-01T00:19:01.136Z,64.97
2018-01-01T00:21:28.624Z,64.30
2018-01-01T00:23:56.060Z,64.02
2018-01-01T00:26:23.531Z,64.17
2018-01-01T00:28:51.004Z,64.00
2018-01-01T00:31:18.468Z,63.67
2018-01-01T00:33:45.914Z,63.55
2018-01-01T00:36:13.408Z,63.35
2018-01-01T00:38:40.924Z,64.17
2018-01-01T00:41:08.369Z,64.18
2018-01-01T00:43:35.849Z,63.67
2018-01-01T00:46:03.300Z,63.73
2018-01-01T00:48:30.752Z,63.33
2018-01-01T00:50:58.269Z,63.99
2018-01-01T00:53:25.731Z,63.51
2018-01-01T00:55:53.209Z,63.11
2018-01-01T00:58:20.691Z,63.15
2018-01-01T01:00:48.166Z,63.08
2018-01-01T01:03:15.733Z,63.59
2018-01-01T01:05:43.200Z,63.36
2018-01-01T01:08:10.686Z,63.01
2018-01-01T01:10:38.137Z,62.78
2018-01-01T01:13:06.711Z,62.85
2018-01-01T01:15:34.196Z,62.66
2018-01-01T01:18:01.679Z,62.31
2018-01-01T01:20:29.128Z,61.90
2018-01-01T01:22:56.576Z,61.28
2018-01-01T01:25:24.015Z,61.35
2018-01-01T01:27:51.461Z,61.33
2018-01-01T01:30:18.918Z,61.26
2018-01-01T01:32:46.371Z,61.06
2018-01-01T01:35:13.865Z,60.35
2018-01-01T01:37:41.327Z,60.83
2018-01-01T01:40:08.806Z,60.51
2018-01-01T01:42:36.284Z,60.54
2018-01-01T01:45:03.846Z,60.51
2018-01-01T01:47:31.285Z,60.57
2018-01-01T01:49:58.732Z,60.34
2018-01-01T01:52:26.177Z,60.14
2018-01-01T01:54:53.620Z,60.72
2018-01-01T01:57:21.102Z,60.47
2018-01-01T01:59:48.535Z,60.57
2018-01-01T02:02:16.000Z,60.12
2018-01-01T02:04:43.442Z,59.85
2018-01-01T02:07:10.891Z,59.85
2018-01-01T02:09:38.354Z,59.59
2018-01-01T02:12:05.809Z,60.20
2018-01-01T02:14:33.296Z,60.45
2018-01-01T02:17:00.808Z,60.12
2018-01-01T02:19:28.340Z,60.22
2018-01-01T02:21:55.784Z,60.04
2018-01-01T02:24:23.235Z,60.37
2018-01-01T02:26:50.752Z,60.13
2018-01-01T02:29:18.321Z,60.48
2018-01-01T02:31:45.792Z,60.32
2018-01-01T02:34:13.233Z,60.21
2018-01-01T02:36:40.690Z,59.88
2018-01-01T02:39:08.139Z,59.78
2018-01-01T02:41:35.609Z,60.52
2018-01-01T02:44:03.098Z,59.87
2018-01-01T02:46:30.550Z,60.20
2018-01-01T02:48:58.283Z,60.13
2018-01-01T02:51:25.734Z,60.25
2018-01-01T02:53:53.178Z,60.25
2018-01-01T02:56:20.641Z,60.19
2018-01-01T02:58:48.150Z,60.58
2018-01-01T03:01:15.607Z,60.00
2018-01-01T03:03:43.108Z,60.32
2018-01-01T03:06:10.562Z,60.32
2018-01-01T03:08:38.040Z,60.58
2018-01-01T03:11:05.553Z,60.47
2018-01-01T03:13:33.003Z,60.54
2018-01-01T03:16:00.455Z,60.63
2018-01-01T03:18:27.908Z,61.06
2018-01-01T03:20:55.356Z,60.90
2018-01-01T03:23:22.802Z,61.32
2018-01-01T03:25:50.245Z,61.60
2018-01-01T03:28:17.694Z,61.71
2018-01-01T03:30:45.144Z,61.38
2018-01-01T03:33:12.598Z,61.49
2018-01-01T03:35:40.050Z,62.09
2018-01-01T03:38:07.497Z,62.22
2018-01-01T03:40:34.954Z,61.83
2018-01-01T03:43:02.737Z,61.58
2018-01-01T03:45:30.216Z,61.52
2018-01-01T03:47:57.680Z,61.62
2018-01-01T03:50:25.156Z,61.74
2018-01-01T03:52:52.678Z,61.85
2018-01-01T03:55:20.109Z,62.20
2018-01-01T03:57:47.680Z,62.12
2018-01-01T04:00:15.132Z,62.06
2018-01-01T04:02:42.587Z,62.34
2018-01-01T04:05:10.028Z,61.94
2018-01-01T04:07:37.505Z,61.74
2018-01-01T04:10:04.997Z,62.05
2018-01-01T04:12:32.461Z,62.39
2018-01-01T04:14:59.935Z,62.37
2018-01-01T04:17:27.393Z,62.33
2018-01-01T04:19:54.905Z,62.60
2018-01-01T04:22:22.351Z,62.80
2018-01-01T04:24:49.821Z,62.80
2018-01-01T04:27:17.265Z,63.23
2018-01-01T04:29:44.784Z,63.24
2018-01-01T04:32:12.225Z,62.62
2018-01-01T04:34:39.681Z,62.56
2018-01-01T04:37:07.120Z,62.13
2018-01-01T04:39:34.575Z,62.36
2018-01-01T04:42:02.026Z,62.35
2018-01-01T04:44:29.469Z,62.55
2018-01-01T04:46:56.970Z,62.77
2018-01-01T04:49:24.409Z,63.01
2018-01-01T04:51:51.912Z,63.39
2018-01-01T04:54:19.353Z,63.25
2018-01-01T04:56:46.837Z,63.54
2018-01-01T04:59:14.311Z,63.39
2018-01-01T05:01:41.748Z,63.60
2018-01-01T05:04:09.212Z,63.73
2018-01-01T05:06:36.649Z,63.92
2018-01-01T05:09:04.090Z,64.05
2018-01-01T05:11:31.552Z,64.01
2018-01-01T05:13:59.009Z,64.17
2018-01-01T05:16:26.510Z,64.25
2018-01-01T05:18:53.967Z,64.19
2018-01-01T05:21:21.415Z,64.50
2018-01-01T05:23:48.860Z,64.00
2018-01-01T05:26:16.314Z,64.25
2018-01-01T05:28:43.757Z,64.25
2018-01-01T05:31:11.215Z,64.00
2018-01-01T05:33:38.707Z,63.72
2018-01-01T05:36:06.166Z,63.90
2018-01-01T05:38:33.640Z,63.09
2018-01-01T05:41:01.110Z,62.88
2018-01-01T05:43:28.593Z,62.80
2018-01-01T05:45:56.175Z,63.04
2018-01-01T05:48:23.722Z,62.89
2018-01-01T05:50:51.181Z,63.66
2018-01-01T05:53:18.676Z,62.98
2018-01-01T05:55:46.140Z,62.82
2018-01-01T05:58:13.619Z,62.22
2018-01-01T06:00:41.071Z,62.28
2018-01-01T06:03:08.522Z,61.78
2018-01-01T06:05:36.032Z,61.99
2018-01-01T06:08:03.479Z,62.43
2018-01-01T06:10:30.968Z,61.53
2018-01-01T06:12:58.428Z,61.96
2018-01-01T06:15:25.882Z,62.13
2018-01-01T06:17:53.370Z,62.27
2018-01-01T06:20:20.830Z,62.93
2018-01-01T06:22:48.284Z,62.72
2018-01-01T06:25:15.784Z,62.44
2018-01-01T06:27:43.244Z,62.80
2018-01-01T06:30:10.736Z,63.01
2018-01-01T06:32:38.313Z,63.56
2018-01-01T06:35:05.875Z,63.68
2018-01-01T06:37:33.349Z,63.60
2018-01-01T06:40:00.795Z,63.04
2018-01-01T06:42:28.241Z,63.40
2018-01-01T06:44:55.788Z,63.16
2018-01-01T06:47:23.277Z,63.37
2018-01-01T06:49:50.745Z,63.00
2018-01-01T06:52:18.201Z,63.37
2018-01-01T06:54:46.094Z,63.10
2018-01-01T06:57:13.623Z,62.85
2018-01-01T06:59:41.104Z,62.57
2018-01-01T07:02:08.569Z,63.22
2018-01-01T07:04:36.016Z,63.18
2018-01-01T07:07:03.486Z,62.71
2018-01-01T07:09:30.944Z,62.78
2018-01-01T07:11:58.384Z,63.05
2018-01-01T07:14:25.836Z,62.97
2018-01-01T07:16:53.382Z,63.25
2018-01-01T07:19:20.844Z,63.34
2018-01-01T07:21:48.296Z,63.75
2018-01-01T07:24:15.752Z,63.65
2018-01-01T07:26:43.201Z,64.13
2018-01-01T07:29:10.652Z,64.16
2018-01-01T07:31:38.125Z,63.96
2018-01-01T07:34:05.575Z,63.54
2018-01-01T07:36:33.017Z,63.59
2018-01-01T07:39:00.513Z,63.58
2018-01-01T07:41:27.976Z,63.15
2018-01-01T07:43:55.452Z,63.02
2018-01-01T07:46:22.935Z,62.25
2018-01-01T07:48:50.387Z,62.48
2018-01-01T07:51:17.842Z,62.61
2018-01-01T07:53:45.351Z,61.89
2018-01-01T07:56:12.925Z,62.06
2018-01-01T07:58:40.374Z,62.32
2018-01-01T08:01:07.820Z,62.68
2018-01-01T08:03:35.298Z,62.08
2018-01-01T08:06:02.844Z,61.92
2018-01-01T08:08:30.301Z,61.10
2018-01-01T08:10:57.740Z,61.22
2018-01-01T08:13:25.202Z,60.87
2018-01-01T08:15:52.659Z,61.44
2018-01-01T08:18:20.109Z,61.06
2018-01-01T08:20:47.544Z,61.00
2018-01-01T08:23:15.075Z,61.49
2018-01-01T08:25:42.531Z,60.75
2018-01-01T08:28:09.976Z,60.73
2018-01-01T08:30:37.493Z,61.18
2018-01-01T08:33:04.966Z,60.30
2018-01-01T08:35:32.428Z,60.26
2018-01-01T08:37:59.876Z,59.64
2018-01-01T08:40:27.324Z,59.72
2018-01-01T08:42:54.797Z,59.71
2018-01-01T08:45:22.313Z,59.64
2018-01-01T08:47:49.778Z,60.39
2018-01-01T08:50:17.215Z,60.24
2018-01-01T08:52:44.674Z,61.03
2018-01-01T08:55:12.113Z,64.03
2018-01-01T08:57:39.558Z,67.58
2018-01-01T09:00:07.036Z,68.99
2018-01-01T09:02:40.356Z,69.88
2018-01-01T09:05:07.821Z,70.67
2018-01-01T09:07:35.260Z,70.26
2018-01-01T09:10:02.708Z,70.91
2018-01-01T09:12:30.160Z,70.84
2018-01-01T09:14:57.605Z,70.49
2018-01-01T09:17:25.065Z,70.16
2018-01-01T09:19:52.519Z,70.38
2018-01-01T09:22:20.032Z,69.34
2018-01-01T09:24:47.483Z,69.30
2018-01-01T09:27:14.921Z,70.10
2018-01-01T09:29:42.372Z,70.30
2018-01-01T09:32:09.801Z,69.29
2018-01-01T09:34:37.259Z,69.52
2018-01-01T09:37:04.708Z,69.32
2018-01-01T09:39:32.197Z,69.37
2018-01-01T09:41:59.681Z,68.73
2018-01-01T09:44:27.133Z,68.46
2018-01-01T09:46:54.572Z,68.37
2018-01-01T09:49:22.017Z,67.65
2018-01-01T09:51:49.461Z,68.85
2018-01-01T09:54:16.903Z,67.84
2018-01-01T09:56:44.404Z,67.27
2018-01-01T09:59:11.858Z,66.97
2018-01-01T10:01:39.334Z,67.93
2018-01-01T10:04:06.806Z,67.08
2018-01-01T10:06:34.273Z,64.98
2018-01-01T10:09:01.731Z,64.39
2018-01-01T10:11:29.184Z,62.65
2018-01-01T10:13:56.675Z,62.52
2018-01-01T10:16:24.145Z,62.15
2018-01-01T10:18:51.636Z,63.53
2018-01-01T10:21:19.081Z,64.25
2018-01-01T10:23:46.546Z,64.02
2018-01-01T10:26:14.058Z,63.02
2018-01-01T10:28:41.611Z,62.50
2018-01-01T10:31:09.176Z,59.83
2018-01-01T10:33:36.646Z,57.17
2018-01-01T10:36:04.100Z,56.51
2018-01-01T10:38:31.553Z,53.58
2018-01-01T10:40:59.017Z,52.55
2018-01-01T10:43:26.523Z,50.94
2018-01-01T10:45:54.014Z,53.88
2018-01-01T10:48:21.469Z,53.37
2018-01-01T10:50:48.916Z,50.75
2018-01-01T10:53:16.380Z,51.89
2018-01-01T10:55:43.828Z,53.54
2018-01-01T10:58:11.278Z,54.71
2018-01-01T11:00:38.822Z,55.27
2018-01-01T11:03:06.310Z,57.29
2018-01-01T11:05:33.900Z,58.52
2018-01-01T11:08:01.429Z,59.10
2018-01-01T11:10:28.940Z,59.56
2018-01-01T11:12:56.386Z,60.33
2018-01-01T11:15:23.859Z,59.67
2018-01-01T11:17:51.311Z,59.54
2018-01-01T11:20:18.763Z,56.36
2018-01-01T11:22:46.214Z,53.54
2018-01-01T11:25:13.685Z,53.43
2018-01-01T11:27:41.142Z,55.16
2018-01-01T11:30:08.583Z,54.62
2018-01-01T11:32:36.036Z,54.64
2018-01-01T11:35:03.477Z,55.64
2018-01-01T11:37:30.987Z,56.52
2018-01-01T11:39:58.433Z,56.26
2018-01-01T11:42:25.892Z,56.56
2018-01-01T11:44:53.344Z,57.49
2018-01-01T11:47:20.796Z,57.84
2018-01-01T11:49:48.252Z,58.59
2018-01-01T11:52:15.699Z,58.58
2018-01-01T11:54:43.162Z,58.70
2018-01-01T11:57:10.618Z,56.25
2018-01-01T11:59:38.402Z,56.99
2018-01-01T12:02:05.888Z,56.57
2018-01-01T12:04:33.373Z,57.04
2018-01-01T12:07:00.831Z,57.11
2018-01-01T12:09:29.104Z,57.25
2018-01-01T12:11:56.587Z,57.77
2018-01-01T12:14:24.043Z,57.96
2018-01-01T12:16:51.501Z,58.21
2018-01-01T12:19:19.369Z,57.58
2018-01-01T12:21:46.822Z,58.04
2018-01-01T12:24:14.304Z,58.86
2018-01-01T12:26:41.805Z,57.57
2018-01-01T12:29:09.330Z,56.12
2018-01-01T12:31:36.790Z,54.59
2018-01-01T12:34:04.292Z,53.59
2018-01-01T12:36:31.791Z,53.22
2018-01-01T12:38:59.245Z,54.47
2018-01-01T12:41:26.787Z,54.68
2018-01-01T12:43:54.240Z,54.44
2018-01-01T12:46:21.728Z,51.93
2018-01-01T12:48:49.321Z,50.04
2018-01-01T12:51:16.876Z,51.40
2018-01-01T12:53:44.337Z,51.02
2018-01-01T12:56:11.769Z,53.17
2018-01-01T12:58:39.460Z,53.75
2018-01-01T13:01:06.958Z,54.90
2018-01-01T13:03:34.410Z,54.94
2018-01-01T13:06:01.917Z,53.63
2018-01-01T13:08:29.355Z,51.78
2018-01-01T13:10:56.903Z,52.39
2018-01-01T13:13:24.393Z,51.65
2018-01-01T13:15:51.961Z,51.75
2018-01-01T13:18:19.448Z,52.04
2018-01-01T13:20:46.881Z,52.89
2018-01-01T13:23:14.344Z,53.88
2018-01-01T13:25:41.854Z,54.76
2018-01-01T13:28:09.294Z,54.77
2018-01-01T13:30:36.794Z,54.88
2018-01-01T13:33:04.296Z,55.13
2018-01-01T13:35:31.766Z,54.91
2018-01-01T13:37:59.251Z,54.61
2018-01-01T13:40:27.114Z,54.59
2018-01-01T13:42:54.611Z,55.59
2018-01-01T13:45:22.095Z,55.69
2018-01-01T13:47:49.595Z,54.94
2018-01-01T13:50:17.098Z,53.73
2018-01-01T13:52:44.608Z,53.44
2018-01-01T13:55:12.102Z,54.81
2018-01-01T13:57:39.605Z,55.78
2018-01-01T14:00:07.107Z,56.00
2018-01-01T14:02:34.669Z,57.01
2018-01-01T14:05:02.152Z,57.02
2018-01-01T14:07:29.665Z,57.94
2018-01-01T14:09:57.190Z,58.20
2018-01-01T14:12:24.694Z,58.91
2018-01-01T14:14:52.220Z,59.35
2018-01-01T14:17:19.772Z,59.39
2018-01-01T14:19:47.353Z,59.92
2018-01-01T14:25:05.251Z,60.26
2018-01-01T14:27:32.750Z,60.15
2018-01-01T14:30:00.254Z,60.20
2018-01-01T14:32:27.714Z,60.05
2018-01-01T14:34:55.219Z,60.54
2018-01-01T14:37:22.707Z,59.42
2018-01-01T14:39:50.200Z,58.85
2018-01-01T14:42:17.651Z,58.43
2018-01-01T14:44:45.161Z,59.00
2018-01-01T14:47:12.685Z,58.88
2018-01-01T14:49:40.184Z,59.13
2018-01-01T14:52:07.704Z,58.71
2018-01-01T14:54:35.238Z,58.76
2018-01-01T14:57:02.775Z,59.04
2018-01-01T14:59:30.296Z,59.19
2018-01-01T15:01:57.796Z,59.42
2018-01-01T15:04:25.388Z,59.15
2018-01-01T15:06:52.849Z,59.32
2018-01-01T15:09:20.332Z,59.93
2018-01-01T15:11:47.844Z,59.83
2018-01-01T15:14:15.288Z,59.71
2018-01-01T15:16:42.834Z,60.18
2018-01-01T15:19:10.469Z,60.42
2018-01-01T15:21:37.971Z,60.99
2018-01-01T15:24:05.488Z,61.26
2018-01-01T15:26:32.991Z,61.63
2018-01-01T15:29:00.480Z,61.95
2018-01-01T15:31:27.996Z,62.18
2018-01-01T15:33:55.493Z,62.37
2018-01-01T15:36:23.008Z,62.56
2018-01-01T15:38:50.597Z,62.40
2018-01-01T15:41:18.105Z,62.38
2018-01-01T15:43:45.609Z,62.82
2018-01-01T15:46:13.157Z,63.08
2018-01-01T15:48:40.680Z,63.23
2018-01-01T15:51:08.247Z,63.27
2018-01-01T15:53:35.744Z,63.39
2018-01-01T15:56:03.252Z,63.31
2018-01-01T15:58:30.702Z,63.34
2018-01-01T16:00:58.260Z,63.26
2018-01-01T16:03:25.746Z,63.35
2018-01-01T16:05:53.271Z,63.29
2018-01-01T16:08:20.772Z,63.42
2018-01-01T16:10:48.259Z,63.43
2018-01-01T16:13:15.876Z,63.79
2018-01-01T16:15:43.384Z,63.93
2018-01-01T16:18:10.946Z,63.88
2018-01-01T16:20:38.438Z,64.01
2018-01-01T16:23:06.013Z,63.99
2018-01-01T16:25:33.555Z,64.86
2018-01-01T16:28:01.221Z,64.63
2018-01-01T16:30:28.763Z,64.40
2018-01-01T16:32:56.471Z,64.35
2018-01-01T16:35:23.983Z,64.34
2018-01-01T16:37:51.488Z,64.45
2018-01-01T16:40:19.087Z,64.37
2018-01-01T16:42:46.608Z,63.91
2018-01-01T16:45:14.252Z,64.05
2018-01-01T16:47:41.741Z,63.82
2018-01-01T16:50:09.281Z,64.42
2018-01-01T16:52:36.794Z,63.66
2018-01-01T16:55:04.321Z,63.78
2018-01-01T16:57:31.825Z,63.76
2018-01-01T16:59:59.387Z,63.43
2018-01-01T17:02:26.928Z,63.61
2018-01-01T17:04:54.508Z,63.35
2018-01-01T17:07:22.075Z,63.51
2018-01-01T17:09:49.584Z,63.51
2018-01-01T17:12:17.126Z,63.47
2018-01-01T17:14:44.600Z,64.07
2018-01-01T17:17:12.133Z,63.91
2018-01-01T17:19:39.635Z,64.46
2018-01-01T17:22:07.203Z,65.41
2018-01-01T17:24:34.798Z,65.66
2018-01-01T17:27:02.359Z,65.53
2018-01-01T17:29:29.875Z,65.68
2018-01-01T17:31:57.383Z,65.68
2018-01-01T17:34:24.901Z,66.00
2018-01-01T17:36:52.400Z,65.82
2018-01-01T17:39:19.934Z,65.81
2018-01-01T17:41:47.442Z,65.89
2018-01-01T17:44:14.954Z,65.90
2018-01-01T17:46:42.460Z,66.01
2018-01-01T17:49:09.965Z,66.09
2018-01-01T17:51:37.476Z,66.25
2018-01-01T17:54:04.983Z,67.11
2018-01-01T17:56:32.479Z,68.69
2018-01-01T17:59:06.435Z,69.79
2018-01-01T18:01:34.036Z,70.90
2018-01-01T18:04:01.622Z,71.56
2018-01-01T18:06:29.129Z,72.93
2018-01-01T18:08:56.629Z,72.28
2018-01-01T18:11:24.208Z,71.92
2018-01-01T18:13:51.719Z,72.06
2018-01-01T18:16:19.239Z,72.47
2018-01-01T18:18:46.749Z,72.40
2018-01-01T18:21:14.264Z,73.91
2018-01-01T18:23:41.766Z,72.84
2018-01-01T18:26:09.265Z,72.67
2018-01-01T18:28:36.754Z,72.36
2018-01-01T18:31:04.255Z,72.79
2018-01-01T18:33:35.583Z,72.06
2018-01-01T18:36:03.093Z,71.36
2018-01-01T18:38:30.600Z,71.15
2018-01-01T18:40:58.123Z,70.60
2018-01-01T18:43:25.673Z,70.18
2018-01-01T18:45:53.171Z,70.31
2018-01-01T18:48:20.686Z,70.92
2018-01-01T18:50:48.183Z,73.13
2018-01-01T18:53:15.690Z,70.09
2018-01-01T18:55:43.199Z,67.92
2018-01-01T18:58:10.722Z,68.41
2018-01-01T19:00:38.225Z,68.28
2018-01-01T19:03:05.760Z,69.37
2018-01-01T19:05:33.274Z,67.98
2018-01-01T19:08:00.802Z,69.43
2018-01-01T19:10:28.301Z,69.96
2018-01-01T19:12:55.811Z,68.52
2018-01-01T19:15:23.340Z,68.47
2018-01-01T19:17:50.892Z,68.62
2018-01-01T19:20:18.419Z,68.46
2018-01-01T19:22:45.920Z,68.59
2018-01-01T19:25:13.451Z,68.18
2018-01-01T19:27:40.959Z,67.98
2018-01-01T19:30:08.470Z,67.63
2018-01-01T19:32:35.979Z,67.33
2018-01-01T19:35:03.510Z,67.43
2018-01-01T19:37:31.018Z,67.65
2018-01-01T19:39:58.560Z,68.11
2018-01-01T19:42:26.070Z,68.38
2018-01-01T19:44:53.625Z,68.71
2018-01-01T19:47:21.133Z,68.52
2018-01-01T19:49:48.650Z,69.30
2018-01-01T19:52:16.173Z,69.32
2018-01-01T19:54:43.791Z,69.47
2018-01-01T19:57:11.319Z,69.19
2018-01-01T19:59:38.814Z,69.08
2018-01-01T20:02:06.319Z,69.26
2018-01-01T20:04:33.818Z,69.19
2018-01-01T20:07:01.338Z,69.04
2018-01-01T20:09:28.842Z,68.86
2018-01-01T20:11:56.346Z,68.89
2018-01-01T20:14:23.846Z,68.72
2018-01-01T20:16:51.400Z,68.90
2018-01-01T20:19:18.904Z,68.82
2018-01-01T20:21:46.415Z,69.14
2018-01-01T20:24:13.943Z,69.07
2018-01-01T20:26:41.535Z,69.34
2018-01-01T20:29:09.050Z,69.54
2018-01-01T20:31:36.552Z,69.62
2018-01-01T20:34:04.113Z,69.66
2018-01-01T20:36:31.608Z,69.59
2018-01-01T20:38:59.146Z,69.74
2018-01-01T20:41:26.702Z,69.48
2018-01-01T20:43:54.254Z,69.46
2018-01-01T20:46:21.758Z,69.33
2018-01-01T20:48:49.293Z,69.53
2018-01-01T20:51:16.799Z,69.49
2018-01-01T20:53:44.299Z,69.64
2018-01-01T20:56:11.803Z,69.58
2018-01-01T20:58:39.310Z,69.75
2018-01-01T21:01:06.856Z,69.65
2018-01-01T21:03:34.380Z,69.89
2018-01-01T21:06:01.907Z,69.88
2018-01-01T21:08:29.398Z,69.73
2018-01-01T21:10:56.914Z,69.81
2018-01-01T21:13:24.414Z,69.76
2018-01-01T21:15:51.952Z,70.09
2018-01-01T21:18:19.451Z,70.23
2018-01-01T21:20:46.938Z,70.29
2018-01-01T21:23:14.486Z,70.54
2018-01-01T21:25:41.992Z,70.67
2018-01-01T21:28:09.502Z,70.69
2018-01-01T21:30:37.121Z,70.67
2018-01-01T21:33:04.660Z,70.83
2018-01-01T21:35:32.250Z,71.08
2018-01-01T21:37:59.762Z,71.19
2018-01-01T21:40:27.279Z,71.22
2018-01-01T21:42:54.810Z,71.04
2018-01-01T21:45:22.333Z,71.31
2018-01-01T21:47:49.835Z,71.34
2018-01-01T21:50:17.363Z,71.38
2018-01-01T21:52:44.856Z,71.38
2018-01-01T21:55:12.373Z,71.48
2018-01-01T21:57:39.890Z,71.64
2018-01-01T22:00:07.402Z,71.66
2018-01-01T22:02:47.995Z,71.59
2018-01-01T22:05:16.534Z,71.54
2018-01-01T22:07:44.044Z,71.33
2018-01-01T22:10:11.586Z,71.34
2018-01-01T22:12:39.097Z,71.53
2018-01-01T22:15:06.616Z,71.63
2018-01-01T22:17:34.147Z,71.64
2018-01-01T22:20:01.667Z,71.81
2018-01-01T22:22:29.205Z,71.86
2018-01-01T22:24:56.728Z,71.41
2018-01-01T22:27:24.265Z,71.48
2018-01-01T22:29:51.770Z,71.31
2018-01-01T22:32:19.276Z,71.26
2018-01-01T22:34:47.341Z,71.36
2018-01-01T22:37:14.886Z,71.35
2018-01-01T22:39:42.406Z,71.38
2018-01-01T22:42:09.952Z,71.69
2018-01-01T22:44:37.484Z,71.70
2018-01-01T22:47:05.005Z,71.92
2018-01-01T22:49:32.519Z,72.18
2018-01-01T22:52:00.021Z,72.46
2018-01-01T22:54:27.537Z,72.51
2018-01-01T22:56:55.055Z,72.14
2018-01-01T22:59:22.575Z,72.05
2018-01-01T23:01:50.098Z,72.18
2018-01-01T23:04:17.658Z,72.37
2018-01-01T23:06:45.160Z,72.15
2018-01-01T23:09:12.673Z,72.02
2018-01-01T23:11:40.180Z,72.08
2018-01-01T23:14:07.765Z,71.86
2018-01-01T23:16:35.526Z,71.47
2018-01-01T23:19:03.038Z,71.38
2018-01-01T23:21:30.569Z,71.05
2018-01-01T23:23:58.084Z,70.68
2018-01-01T23:26:25.595Z,70.05
2018-01-01T23:28:53.116Z,69.73
2018-01-01T23:31:20.623Z,69.37
2018-01-01T23:33:48.120Z,69.24
2018-01-01T23:36:15.629Z,68.68
2018-01-01T23:38:43.140Z,68.64
2018-01-01T23:41:10.656Z,68.41
2018-01-01T23:43:38.166Z,67.78
2018-01-01T23:46:05.703Z,67.79
2018-01-01T23:48:33.195Z,67.33
2018-01-01T23:51:00.723Z,67.10
2018-01-01T23:53:28.236Z,67.47
2018-01-01T23:55:55.722Z,67.65
2018-01-01T23:58:23.248Z,67.69
